createdAt,value
2022-09-20T00:00:16.745Z,4.90
2022-09-20T00:03:19.754Z,3.75
2022-09-20T00:06:27.838Z,3.70
2022-09-20T00:09:29.771Z,5.55
2022-09-20T00:12:31.820Z,4.53
2022-09-20T00:15:34.563Z,3.47
2022-09-20T00:18:37.197Z,5.43
2022-09-20T00:21:39.327Z,3.67
2022-09-20T00:24:43.556Z,3.40
2022-09-20T00:27:47.942Z,3.42
2022-09-20T00:30:49.782Z,5.45
2022-09-20T00:34:14.090Z,4.47
2022-09-20T00:37:15.982Z,4.97
2022-09-20T00:40:23.239Z,4.13
2022-09-20T00:43:46.356Z,7.53
2022-09-20T00:46:48.237Z,4.65
2022-09-20T00:49:55.817Z,4.53
2022-09-20T00:53:06.293Z,4.47
2022-09-20T00:56:18.486Z,4.07
2022-09-20T00:59:27.169Z,6.53
2022-09-20T01:02:31.674Z,3.13
2022-09-20T01:05:34.647Z,3.35
2022-09-20T01:08:38.051Z,5.88
2022-09-20T01:11:41.142Z,3.83
2022-09-20T01:14:46.025Z,3.67
2022-09-20T01:17:52.526Z,3.28
2022-09-20T01:20:55.805Z,4.50
2022-09-20T01:27:10.120Z,5.72
2022-09-20T01:30:19.185Z,3.42
2022-09-20T01:33:44.495Z,3.35
2022-09-20T01:37:03.518Z,6.38
2022-09-20T01:40:10.946Z,5.78
2022-09-20T01:43:27.918Z,3.58
2022-09-20T01:46:33.212Z,4.30
2022-09-20T01:49:45.566Z,2.92
2022-09-20T01:53:06.203Z,3.00
2022-09-20T01:56:13.846Z,6.22
2022-09-20T01:59:25.731Z,7.32
2022-09-20T02:03:01.512Z,3.28
2022-09-20T02:06:43.878Z,2.95
2022-09-20T02:10:34.640Z,3.33
2022-09-20T02:13:39.708Z,3.13
2022-09-20T02:17:02.859Z,5.70
2022-09-20T02:20:13.254Z,4.10
2022-09-20T02:23:36.236Z,2.75
2022-09-20T02:26:56.461Z,4.23
2022-09-20T02:30:25.200Z,3.00
2022-09-20T02:33:38.390Z,3.42
2022-09-20T02:36:58.185Z,5.90
2022-09-20T02:40:13.016Z,3.72
2022-09-20T02:43:44.963Z,6.30
2022-09-20T02:46:50.539Z,3.03
2022-09-20T02:50:15.174Z,3.08
2022-09-20T02:53:45.784Z,3.92
2022-09-20T02:57:14.172Z,5.35
2022-09-20T03:00:24.641Z,4.97
2022-09-20T03:04:02.640Z,2.97
2022-09-20T03:07:23.521Z,4.88
2022-09-20T03:10:43.920Z,3.05
2022-09-20T03:14:10.752Z,6.55
2022-09-20T03:17:45.582Z,4.13
2022-09-20T03:21:26.796Z,5.97
2022-09-20T03:24:51.686Z,4.90
2022-09-20T03:28:06.570Z,6.40
2022-09-20T03:31:13.943Z,7.65
2022-09-20T03:34:56.713Z,5.30
2022-09-20T03:38:35.897Z,9.27
2022-09-20T03:41:52.465Z,4.47
2022-09-20T03:45:13.106Z,7.68
2022-09-20T03:49:04.404Z,3.92
2022-09-20T03:52:17.831Z,8.82
2022-09-20T03:55:47.692Z,5.78
2022-09-20T03:59:13.529Z,7.05
2022-09-20T04:02:38.121Z,6.70
2022-09-20T04:05:52.730Z,5.30
2022-09-20T04:09:24.184Z,6.78
2022-09-20T04:12:44.665Z,3.47
2022-09-20T04:16:05.155Z,10.13
2022-09-20T04:19:21.826Z,7.85
2022-09-20T04:22:26.079Z,8.65
2022-09-20T04:25:37.073Z,11.13
2022-09-20T04:28:44.926Z,8.40
2022-09-20T04:32:03.913Z,8.23
2022-09-20T04:35:48.296Z,10.23
2022-09-20T04:39:03.130Z,7.97
2022-09-20T04:42:15.355Z,13.18
2022-09-20T04:45:58.561Z,10.10
2022-09-20T04:49:34.048Z,14.47
2022-09-20T04:52:54.312Z,9.88
2022-09-20T04:56:02.086Z,10.27
2022-09-20T04:59:13.676Z,4.95
2022-09-20T05:02:42.017Z,14.07
2022-09-20T05:05:47.743Z,9.45
2022-09-20T05:09:17.015Z,9.60
2022-09-20T05:12:34.469Z,7.82
2022-09-20T05:15:41.265Z,8.57
2022-09-20T05:18:59.502Z,10.20
2022-09-20T05:22:42.757Z,4.20
2022-09-20T05:26:07.319Z,7.78
2022-09-20T05:29:39.078Z,6.97
2022-09-20T05:33:10.615Z,16.85
2022-09-20T05:36:18.202Z,13.15
2022-09-20T05:39:42.408Z,14.90
2022-09-20T05:42:50.338Z,22.20
2022-09-20T05:46:33.914Z,6.53
2022-09-20T05:50:02.925Z,12.85
2022-09-20T05:53:42.977Z,19.10
2022-09-20T05:56:47.811Z,10.95
2022-09-20T06:00:14.237Z,13.07
2022-09-20T06:03:36.012Z,14.23
2022-09-20T06:06:52.413Z,11.55
2022-09-20T06:10:33.015Z,6.68
2022-09-20T06:13:45.057Z,11.95
2022-09-20T06:16:46.913Z,9.90
2022-09-20T06:20:16.518Z,14.13
2022-09-20T06:23:19.256Z,8.90
2022-09-20T06:26:25.568Z,9.05
2022-09-20T06:29:35.173Z,13.30
2022-09-20T06:33:00.187Z,8.00
2022-09-20T06:36:25.765Z,8.32
2022-09-20T06:39:49.207Z,9.73
2022-09-20T06:42:51.448Z,8.35
2022-09-20T06:45:53.430Z,5.35
2022-09-20T06:48:56.452Z,5.63
2022-09-20T06:51:58.876Z,5.30
2022-09-20T06:55:00.735Z,5.88
2022-09-20T06:58:02.775Z,6.22
2022-09-20T07:01:04.777Z,11.93
2022-09-20T07:04:06.979Z,7.88
2022-09-20T07:07:15.398Z,7.57
2022-09-20T07:10:17.334Z,6.22
2022-09-20T07:13:20.873Z,7.28
2022-09-20T07:16:23.075Z,6.18
2022-09-20T07:19:24.900Z,5.85
2022-09-20T07:22:27.588Z,7.80
2022-09-20T07:25:31.177Z,9.35
2022-09-20T07:28:34.835Z,15.27
2022-09-20T07:31:36.677Z,9.85
2022-09-20T07:34:38.540Z,6.15
2022-09-20T07:37:41.394Z,7.03
2022-09-20T07:40:45.383Z,5.88
2022-09-20T07:43:47.196Z,5.88
2022-09-20T07:46:54.334Z,15.00
2022-09-20T07:49:56.219Z,8.32
2022-09-20T07:52:58.240Z,21.05
2022-09-20T07:56:05.332Z,16.98
2022-09-20T07:59:07.462Z,17.08
2022-09-20T08:02:15.826Z,10.10
2022-09-20T08:05:17.803Z,12.57
2022-09-20T08:08:20.156Z,12.27
2022-09-20T08:11:28.577Z,14.00
2022-09-20T08:14:30.428Z,11.50
2022-09-20T08:17:32.767Z,11.23
2022-09-20T08:20:38.629Z,9.25
2022-09-20T08:23:42.925Z,8.02
2022-09-20T08:26:44.818Z,9.05
2022-09-20T08:29:46.685Z,9.55
2022-09-20T08:32:48.629Z,7.07
2022-09-20T08:35:50.463Z,6.50
2022-09-20T08:42:33.612Z,4.88
2022-09-20T08:45:36.332Z,7.57
2022-09-20T08:48:38.286Z,4.47
2022-09-20T08:51:41.390Z,4.10
2022-09-20T08:54:43.691Z,3.72
2022-09-20T08:57:56.313Z,3.08
2022-09-20T09:00:58.851Z,3.60
2022-09-20T09:04:16.750Z,2.40
2022-09-20T09:07:21.836Z,3.03
2022-09-20T09:10:23.888Z,3.75
2022-09-20T09:13:53.069Z,6.47
2022-09-20T09:16:54.984Z,3.25
2022-09-20T09:20:17.578Z,2.33
2022-09-20T09:23:27.598Z,4.43
2022-09-20T09:26:36.420Z,2.70
2022-09-20T09:29:52.574Z,1.48
2022-09-20T09:33:20.041Z,7.00
2022-09-20T09:36:25.953Z,3.50
2022-09-20T09:39:30.724Z,2.25
2022-09-20T09:42:33.174Z,2.45
2022-09-20T09:45:40.309Z,2.37
2022-09-20T09:48:42.243Z,3.00
2022-09-20T09:52:01.656Z,4.57
2022-09-20T09:55:05.790Z,4.70
2022-09-20T09:58:31.470Z,6.88
2022-09-20T10:01:50.879Z,3.25
2022-09-20T10:05:11.246Z,3.63
2022-09-20T10:08:28.644Z,4.43
2022-09-20T10:11:45.671Z,3.47
2022-09-20T10:15:09.822Z,4.40
2022-09-20T10:18:31.989Z,1.98
2022-09-20T10:21:41.909Z,2.42
2022-09-20T10:24:52.382Z,2.65
2022-09-20T10:28:15.626Z,4.57
2022-09-20T10:31:40.366Z,2.97
2022-09-20T10:35:09.157Z,1.40
2022-09-20T10:38:29.139Z,1.88
2022-09-20T10:42:19.091Z,1.50
2022-09-20T10:45:53.662Z,2.10
2022-09-20T10:49:00.890Z,1.33
2022-09-20T10:52:34.563Z,0.82
2022-09-20T10:56:00.654Z,1.40
2022-09-20T10:59:20.726Z,2.80
2022-09-20T11:02:41.249Z,1.27
2022-09-20T11:05:46.163Z,2.15
2022-09-20T11:08:54.294Z,3.33
2022-09-20T11:12:09.562Z,1.58
2022-09-20T11:16:02.886Z,3.58
2022-09-20T11:19:26.703Z,2.42
2022-09-20T11:22:40.882Z,2.08
2022-09-20T11:25:53.319Z,2.05
2022-09-20T11:29:05.835Z,1.65
2022-09-20T11:32:24.633Z,2.17
2022-09-20T11:35:33.247Z,6.88
2022-09-20T11:38:50.933Z,2.55
2022-09-20T11:42:00.395Z,2.65
2022-09-20T11:45:03.984Z,5.30
2022-09-20T11:48:46.976Z,3.83
2022-09-20T11:52:14.729Z,3.58
2022-09-20T11:55:25.745Z,3.55
2022-09-20T11:58:28.175Z,4.18
2022-09-20T12:01:33.997Z,3.93
2022-09-20T12:04:36.903Z,3.60
2022-09-20T12:07:43.781Z,2.22
2022-09-20T12:11:14.701Z,1.63
2022-09-20T12:14:28.029Z,2.33
2022-09-20T12:17:47.787Z,2.95
2022-09-20T12:20:55.678Z,3.58
2022-09-20T12:23:57.490Z,1.88
2022-09-20T12:27:20.247Z,3.17
2022-09-20T12:30:25.039Z,2.42
2022-09-20T12:34:01.117Z,4.40
2022-09-20T12:37:04.799Z,3.45
2022-09-20T12:40:16.365Z,4.07
2022-09-20T12:43:22.396Z,1.88
2022-09-20T12:46:30.082Z,2.25
2022-09-20T12:50:04.531Z,3.55
2022-09-20T12:53:13.562Z,4.50
2022-09-20T12:56:20.465Z,5.68
2022-09-20T12:59:27.479Z,2.80
2022-09-20T13:02:59.037Z,8.85
2022-09-20T13:06:07.224Z,8.13
2022-09-20T13:09:10.584Z,9.90
2022-09-20T13:15:19.849Z,4.53
2022-09-20T13:18:25.070Z,3.08
2022-09-20T13:21:28.000Z,5.15
2022-09-20T13:24:45.180Z,3.47
2022-09-20T13:27:58.688Z,3.10
2022-09-20T13:34:26.024Z,4.25
2022-09-20T13:37:27.859Z,3.72
2022-09-20T13:40:39.332Z,7.97
2022-09-20T13:43:43.828Z,4.53
2022-09-20T13:46:46.102Z,4.63
2022-09-20T13:49:48.185Z,4.75
2022-09-20T13:52:58.310Z,3.10
2022-09-20T13:56:00.250Z,4.13
2022-09-20T13:59:05.733Z,3.30
2022-09-20T14:02:31.765Z,5.72
2022-09-20T14:05:34.320Z,3.72
2022-09-20T14:08:41.392Z,2.80
2022-09-20T14:11:43.402Z,3.95
2022-09-20T14:14:46.296Z,4.88
2022-09-20T14:17:49.089Z,2.95
2022-09-20T14:20:53.271Z,2.53
2022-09-20T14:24:02.672Z,3.83
2022-09-20T14:27:20.972Z,2.90
2022-09-20T14:30:36.314Z,2.83
2022-09-20T14:33:43.466Z,1.90
2022-09-20T14:36:47.516Z,4.78
2022-09-20T14:39:55.408Z,2.10
2022-09-20T14:43:00.297Z,2.25
2022-09-20T14:46:05.555Z,2.95
2022-09-20T14:49:25.471Z,3.42
2022-09-20T14:52:27.527Z,6.90
2022-09-20T14:55:37.178Z,3.28
2022-09-20T14:59:06.859Z,2.47
2022-09-20T15:02:10.372Z,7.15
2022-09-20T15:05:26.047Z,2.95
2022-09-20T15:08:28.097Z,2.60
2022-09-20T15:11:30.035Z,4.40
2022-09-20T15:14:37.153Z,5.13
2022-09-20T15:17:39.724Z,1.30
2022-09-20T15:20:41.717Z,1.60
2022-09-20T15:23:43.912Z,2.08
2022-09-20T15:26:46.538Z,2.50
2022-09-20T15:29:48.528Z,4.28
2022-09-20T15:32:50.419Z,1.58
2022-09-20T15:35:53.071Z,1.33
2022-09-20T15:38:54.948Z,1.90
2022-09-20T15:41:57.227Z,1.50
2022-09-20T15:44:59.108Z,2.40
2022-09-20T15:48:01.568Z,2.45
2022-09-20T15:51:08.665Z,2.23
2022-09-20T15:54:13.994Z,2.50
2022-09-20T15:57:16.064Z,4.43
2022-09-20T16:00:18.347Z,3.53
2022-09-20T16:03:20.621Z,2.15
2022-09-20T16:06:23.892Z,1.75
2022-09-20T16:09:25.745Z,1.55
2022-09-20T16:12:27.777Z,1.50
2022-09-20T16:15:30.102Z,3.55
2022-09-20T16:18:50.335Z,1.70
2022-09-20T16:21:58.675Z,2.35
2022-09-20T16:25:05.999Z,3.13
2022-09-20T16:28:07.876Z,4.68
2022-09-20T16:31:32.735Z,5.78
2022-09-20T16:34:36.322Z,3.65
2022-09-20T16:37:39.404Z,5.03
2022-09-20T16:40:41.516Z,5.07
2022-09-20T16:43:43.384Z,5.10
2022-09-20T16:46:46.042Z,5.65
2022-09-20T16:49:48.659Z,5.95
2022-09-20T16:52:50.626Z,3.93
2022-09-20T16:55:55.796Z,5.95
2022-09-20T16:58:57.835Z,7.65
2022-09-20T17:01:59.714Z,7.00
2022-09-20T17:05:02.368Z,4.82
2022-09-20T17:08:04.719Z,6.43
2022-09-20T17:11:19.544Z,6.68
2022-09-20T17:14:22.803Z,7.20
2022-09-20T17:17:24.769Z,5.75
2022-09-20T17:20:30.126Z,5.22
2022-09-20T17:23:35.033Z,6.90
2022-09-20T17:26:44.641Z,3.97
2022-09-20T17:29:47.683Z,4.72
2022-09-20T17:32:51.799Z,5.55
2022-09-20T17:35:53.765Z,3.20
2022-09-20T17:39:03.000Z,4.57
2022-09-20T17:42:06.242Z,3.60
2022-09-20T17:45:08.646Z,5.40
2022-09-20T17:48:11.314Z,3.47
2022-09-20T17:51:13.123Z,3.45
2022-09-20T17:54:15.474Z,5.05
2022-09-20T17:57:17.430Z,2.78
2022-09-20T18:00:19.845Z,4.32
2022-09-20T18:03:21.771Z,2.75
2022-09-20T18:06:29.966Z,4.03
2022-09-20T18:09:31.823Z,2.63
2022-09-20T18:12:33.697Z,3.20
2022-09-20T18:15:35.566Z,5.60
2022-09-20T18:18:40.852Z,2.35
2022-09-20T18:21:43.088Z,4.80
2022-09-20T18:24:44.985Z,3.42
2022-09-20T18:27:47.718Z,4.13
2022-09-20T18:31:03.378Z,3.38
2022-09-20T18:34:15.423Z,4.40
2022-09-20T18:37:17.603Z,5.03
2022-09-20T18:40:19.951Z,10.52
2022-09-20T18:43:22.034Z,12.38
2022-09-20T18:46:25.349Z,10.02
2022-09-20T18:52:29.753Z,9.05
2022-09-20T18:55:31.956Z,9.60
2022-09-20T18:58:35.446Z,11.88
2022-09-20T19:02:12.871Z,15.27
2022-09-20T19:05:23.731Z,10.55
2022-09-20T19:08:34.319Z,9.30
2022-09-20T19:11:46.084Z,8.07
2022-09-20T19:15:02.620Z,8.07
2022-09-20T19:18:04.406Z,10.95
2022-09-20T19:21:42.853Z,16.02
2022-09-20T19:25:10.332Z,12.90
2022-09-20T19:28:14.669Z,14.25
2022-09-20T19:31:29.894Z,14.23
2022-09-20T19:34:33.475Z,9.63
2022-09-20T19:38:03.187Z,10.73
2022-09-20T19:41:27.480Z,14.30
2022-09-20T19:44:51.280Z,12.32
2022-09-20T19:51:05.364Z,11.32
2022-09-20T19:54:12.062Z,8.25
2022-09-20T19:57:31.382Z,7.70
2022-09-20T20:00:33.584Z,7.63
2022-09-20T20:03:36.228Z,7.88
2022-09-20T20:06:59.836Z,5.07
2022-09-20T20:10:49.811Z,5.03
2022-09-20T20:14:20.249Z,4.93
2022-09-20T20:17:24.973Z,5.32
2022-09-20T20:21:02.787Z,6.72
2022-09-20T20:24:44.779Z,5.53
2022-09-20T20:27:46.726Z,4.65
2022-09-20T20:30:48.628Z,7.63
2022-09-20T20:33:50.659Z,4.30
2022-09-20T20:37:00.781Z,5.07
2022-09-20T20:40:02.704Z,6.32
2022-09-20T20:43:06.168Z,3.97
2022-09-20T20:46:10.300Z,5.13
2022-09-20T20:49:12.116Z,5.07
2022-09-20T20:52:14.090Z,8.55
2022-09-20T20:55:16.022Z,5.13
2022-09-20T20:58:18.238Z,3.58
2022-09-20T21:01:26.704Z,4.72
2022-09-20T21:04:30.137Z,5.05
2022-09-20T21:10:34.345Z,4.80
2022-09-20T21:13:36.693Z,5.00
2022-09-20T21:16:42.559Z,4.30
2022-09-20T21:19:44.464Z,3.35
2022-09-20T21:22:46.329Z,5.43
2022-09-20T21:25:49.177Z,3.92
2022-09-20T21:28:56.947Z,3.92
2022-09-20T21:31:58.813Z,4.22
2022-09-20T21:35:00.778Z,3.22
2022-09-20T21:38:02.599Z,3.00
2022-09-20T21:41:20.067Z,4.20
2022-09-20T21:44:21.982Z,2.50
2022-09-20T21:47:24.048Z,2.28
2022-09-20T21:50:26.391Z,4.30
2022-09-20T21:53:28.361Z,2.53
2022-09-20T21:56:35.602Z,2.42
2022-09-20T21:59:37.601Z,1.70
2022-09-20T22:02:40.438Z,1.80
2022-09-20T22:05:42.366Z,1.85
2022-09-20T22:08:59.124Z,2.22
2022-09-20T22:12:01.147Z,2.38
2022-09-20T22:15:03.035Z,3.20
2022-09-20T22:18:06.036Z,3.72
2022-09-20T22:21:14.121Z,3.10
2022-09-20T22:24:17.051Z,3.10
2022-09-20T22:27:18.878Z,3.90
2022-09-20T22:30:20.798Z,7.45
2022-09-20T22:33:22.745Z,3.78
2022-09-20T22:36:27.975Z,5.22
2022-09-20T22:39:29.809Z,3.97
2022-09-20T22:42:31.714Z,3.95
2022-09-20T22:45:33.538Z,4.90
2022-09-20T22:48:36.670Z,4.80
2022-09-20T22:51:38.797Z,4.93
2022-09-20T22:54:40.680Z,5.10
2022-09-20T22:57:42.479Z,5.05
2022-09-20T23:00:44.417Z,4.53
2022-09-20T23:03:52.578Z,4.97
2022-09-20T23:06:55.233Z,5.30
2022-09-20T23:09:57.185Z,6.15
2022-09-20T23:12:59.181Z,5.60
2022-09-20T23:16:01.131Z,6.07
2022-09-20T23:19:04.972Z,5.75
2022-09-20T23:22:06.790Z,7.68
2022-09-20T23:25:09.242Z,6.07
2022-09-20T23:28:11.160Z,5.73
2022-09-20T23:31:17.376Z,6.43
2022-09-20T23:34:19.359Z,9.32
2022-09-20T23:37:21.272Z,6.78
2022-09-20T23:40:23.213Z,6.88
2022-09-20T23:43:25.099Z,6.85
2022-09-20T23:46:27.543Z,6.72
2022-09-20T23:49:29.398Z,7.00
2022-09-20T23:52:31.223Z,6.80
2022-09-20T23:55:33.122Z,6.43
2022-09-20T23:58:37.227Z,5.97
